sensor_id;sensor_type;location;lat;lon;timestamp;temperature;humidity
55828;DHT22;41758;51.992;5.890;2024-03-08T00:02:24;8.80;63.00
55828;DHT22;41758;51.992;5.890;2024-03-08T00:04:49;8.70;63.00
55828;DHT22;41758;51.992;5.890;2024-03-08T00:07:15;8.70;63.00
55828;DHT22;41758;51.992;5.890;2024-03-08T00:09:41;8.70;63.00
55828;DHT22;41758;51.992;5.890;2024-03-08T00:12:07;8.60;63.00
55828;DHT22;41758;51.992;5.890;2024-03-08T00:14:32;8.60;63.00
55828;DHT22;41758;51.992;5.890;2024-03-08T00:16:58;8.60;63.00
55828;DHT22;41758;51.992;5.890;2024-03-08T00:19:24;8.60;63.00
55828;DHT22;41758;51.992;5.890;2024-03-08T00:21:50;8.60;62.90
55828;DHT22;41758;51.992;5.890;2024-03-08T00:24:15;8.60;62.90
55828;DHT22;41758;51.992;5.890;2024-03-08T00:26:41;8.50;63.00
55828;DHT22;41758;51.992;5.890;2024-03-08T00:29:07;8.60;63.00
55828;DHT22;41758;51.992;5.890;2024-03-08T00:31:33;8.60;63.50
55828;DHT22;41758;51.992;5.890;2024-03-08T00:33:59;8.60;63.80
55828;DHT22;41758;51.992;5.890;2024-03-08T00:36:25;8.70;63.80
55828;DHT22;41758;51.992;5.890;2024-03-08T00:38:50;8.70;63.50
55828;DHT22;41758;51.992;5.890;2024-03-08T00:41:16;8.80;63.20
55828;DHT22;41758;51.992;5.890;2024-03-08T00:43:42;8.70;63.00
55828;DHT22;41758;51.992;5.890;2024-03-08T00:46:07;8.70;62.90
55828;DHT22;41758;51.992;5.890;2024-03-08T00:48:33;8.70;62.80
55828;DHT22;41758;51.992;5.890;2024-03-08T00:50:59;8.60;62.80
55828;DHT22;41758;51.992;5.890;2024-03-08T00:53:24;8.60;62.80
55828;DHT22;41758;51.992;5.890;2024-03-08T00:55:50;8.50;62.70
55828;DHT22;41758;51.992;5.890;2024-03-08T00:58:16;8.50;62.80
55828;DHT22;41758;51.992;5.890;2024-03-08T01:00:41;8.40;62.80
55828;DHT22;41758;51.992;5.890;2024-03-08T01:03:07;8.40;62.80
55828;DHT22;41758;51.992;5.890;2024-03-08T01:05:33;8.30;62.80
55828;DHT22;41758;51.992;5.890;2024-03-08T01:08:00;8.30;62.80
55828;DHT22;41758;51.992;5.890;2024-03-08T01:10:26;8.30;62.80
55828;DHT22;41758;51.992;5.890;2024-03-08T01:12:52;8.30;62.80
55828;DHT22;41758;51.992;5.890;2024-03-08T01:15:20;8.30;62.80
55828;DHT22;41758;51.992;5.890;2024-03-08T01:17:46;8.30;62.80
55828;DHT22;41758;51.992;5.890;2024-03-08T01:20:12;8.20;62.80
55828;DHT22;41758;51.992;5.890;2024-03-08T01:22:38;8.20;62.80
55828;DHT22;41758;51.992;5.890;2024-03-08T01:25:04;8.20;62.80
55828;DHT22;41758;51.992;5.890;2024-03-08T01:27:31;8.10;62.80
55828;DHT22;41758;51.992;5.890;2024-03-08T01:29:56;8.10;62.80
55828;DHT22;41758;51.992;5.890;2024-03-08T01:32:24;8.10;62.80
55828;DHT22;41758;51.992;5.890;2024-03-08T01:34:50;8.10;62.80
55828;DHT22;41758;51.992;5.890;2024-03-08T01:37:16;8.10;62.80
55828;DHT22;41758;51.992;5.890;2024-03-08T01:39:42;8.00;62.80
55828;DHT22;41758;51.992;5.890;2024-03-08T01:42:07;8.10;62.80
55828;DHT22;41758;51.992;5.890;2024-03-08T01:44:33;8.00;62.80
55828;DHT22;41758;51.992;5.890;2024-03-08T01:46:59;8.00;62.80
55828;DHT22;41758;51.992;5.890;2024-03-08T01:49:26;8.00;62.80
55828;DHT22;41758;51.992;5.890;2024-03-08T01:51:52;8.00;62.70
55828;DHT22;41758;51.992;5.890;2024-03-08T01:54:19;8.00;62.70
55828;DHT22;41758;51.992;5.890;2024-03-08T01:56:46;8.00;62.70
55828;DHT22;41758;51.992;5.890;2024-03-08T01:59:12;7.90;62.70
55828;DHT22;41758;51.992;5.890;2024-03-08T02:01:40;7.90;62.70
55828;DHT22;41758;51.992;5.890;2024-03-08T02:04:05;7.90;62.60
55828;DHT22;41758;51.992;5.890;2024-03-08T02:06:32;7.90;62.60
55828;DHT22;41758;51.992;5.890;2024-03-08T02:08:58;7.90;62.70
55828;DHT22;41758;51.992;5.890;2024-03-08T02:11:24;7.80;62.70
55828;DHT22;41758;51.992;5.890;2024-03-08T02:13:50;7.80;62.60
55828;DHT22;41758;51.992;5.890;2024-03-08T02:16:22;7.80;62.70
55828;DHT22;41758;51.992;5.890;2024-03-08T02:18:48;7.80;62.60
55828;DHT22;41758;51.992;5.890;2024-03-08T02:21:17;7.70;62.60
55828;DHT22;41758;51.992;5.890;2024-03-08T02:23:46;7.70;62.60
55828;DHT22;41758;51.992;5.890;2024-03-08T02:26:12;7.70;62.60
55828;DHT22;41758;51.992;5.890;2024-03-08T02:28:38;7.60;62.60
55828;DHT22;41758;51.992;5.890;2024-03-08T02:31:04;7.70;62.60
55828;DHT22;41758;51.992;5.890;2024-03-08T02:33:33;7.60;62.60
55828;DHT22;41758;51.992;5.890;2024-03-08T02:35:59;7.60;62.60
55828;DHT22;41758;51.992;5.890;2024-03-08T02:38:25;7.60;62.50
55828;DHT22;41758;51.992;5.890;2024-03-08T02:40:53;7.60;62.50
55828;DHT22;41758;51.992;5.890;2024-03-08T02:43:20;7.50;62.50
55828;DHT22;41758;51.992;5.890;2024-03-08T02:45:46;7.50;62.50
55828;DHT22;41758;51.992;5.890;2024-03-08T02:48:12;7.50;62.40
55828;DHT22;41758;51.992;5.890;2024-03-08T02:50:38;7.50;62.50
55828;DHT22;41758;51.992;5.890;2024-03-08T02:53:08;7.40;62.50
55828;DHT22;41758;51.992;5.890;2024-03-08T02:55:35;7.40;62.50
55828;DHT22;41758;51.992;5.890;2024-03-08T02:58:02;7.40;62.50
55828;DHT22;41758;51.992;5.890;2024-03-08T03:00:29;7.30;62.50
55828;DHT22;41758;51.992;5.890;2024-03-08T03:02:56;7.30;62.50
55828;DHT22;41758;51.992;5.890;2024-03-08T03:05:25;7.30;62.50
55828;DHT22;41758;51.992;5.890;2024-03-08T03:07:51;7.30;62.50
55828;DHT22;41758;51.992;5.890;2024-03-08T03:10:17;7.30;62.50
55828;DHT22;41758;51.992;5.890;2024-03-08T03:12:44;7.30;62.40
55828;DHT22;41758;51.992;5.890;2024-03-08T03:15:12;7.30;62.50
55828;DHT22;41758;51.992;5.890;2024-03-08T03:17:39;7.20;62.40
55828;DHT22;41758;51.992;5.890;2024-03-08T03:20:07;7.30;62.40
55828;DHT22;41758;51.992;5.890;2024-03-08T03:22:38;7.20;62.40
55828;DHT22;41758;51.992;5.890;2024-03-08T03:25:04;7.20;62.50
55828;DHT22;41758;51.992;5.890;2024-03-08T03:27:32;7.20;62.40
55828;DHT22;41758;51.992;5.890;2024-03-08T03:29:57;7.20;62.40
55828;DHT22;41758;51.992;5.890;2024-03-08T03:32:23;7.20;62.40
55828;DHT22;41758;51.992;5.890;2024-03-08T03:34:49;7.10;62.40
55828;DHT22;41758;51.992;5.890;2024-03-08T03:37:21;7.10;62.40
55828;DHT22;41758;51.992;5.890;2024-03-08T03:39:47;7.10;62.40
55828;DHT22;41758;51.992;5.890;2024-03-08T03:42:19;7.00;62.40
55828;DHT22;41758;51.992;5.890;2024-03-08T03:44:48;7.00;62.40
55828;DHT22;41758;51.992;5.890;2024-03-08T03:47:14;7.00;62.50
55828;DHT22;41758;51.992;5.890;2024-03-08T03:49:41;7.00;62.50
55828;DHT22;41758;51.992;5.890;2024-03-08T03:52:07;7.00;62.50
55828;DHT22;41758;51.992;5.890;2024-03-08T03:54:32;7.00;62.50
55828;DHT22;41758;51.992;5.890;2024-03-08T03:56:59;6.90;62.50
55828;DHT22;41758;51.992;5.890;2024-03-08T03:59:29;7.00;62.50
55828;DHT22;41758;51.992;5.890;2024-03-08T04:01:54;6.90;62.50
55828;DHT22;41758;51.992;5.890;2024-03-08T04:04:21;6.90;62.50
55828;DHT22;41758;51.992;5.890;2024-03-08T04:06:47;6.90;62.50
55828;DHT22;41758;51.992;5.890;2024-03-08T04:09:13;6.90;62.50
55828;DHT22;41758;51.992;5.890;2024-03-08T04:11:39;6.90;62.50
55828;DHT22;41758;51.992;5.890;2024-03-08T04:14:05;6.90;62.40
55828;DHT22;41758;51.992;5.890;2024-03-08T04:16:31;6.90;62.50
55828;DHT22;41758;51.992;5.890;2024-03-08T04:18:57;6.90;62.50
55828;DHT22;41758;51.992;5.890;2024-03-08T04:21:23;6.90;62.50
55828;DHT22;41758;51.992;5.890;2024-03-08T04:23:49;6.80;62.50
55828;DHT22;41758;51.992;5.890;2024-03-08T04:26:14;6.80;62.50
55828;DHT22;41758;51.992;5.890;2024-03-08T04:28:40;6.80;62.50
55828;DHT22;41758;51.992;5.890;2024-03-08T04:31:07;6.80;62.50
55828;DHT22;41758;51.992;5.890;2024-03-08T04:33:33;6.80;62.50
55828;DHT22;41758;51.992;5.890;2024-03-08T04:36:01;6.80;62.50
55828;DHT22;41758;51.992;5.890;2024-03-08T04:38:30;6.80;62.50
55828;DHT22;41758;51.992;5.890;2024-03-08T04:40:57;6.80;62.50
55828;DHT22;41758;51.992;5.890;2024-03-08T04:43:23;6.80;62.50
55828;DHT22;41758;51.992;5.890;2024-03-08T04:45:51;6.70;62.50
55828;DHT22;41758;51.992;5.890;2024-03-08T04:48:16;6.70;62.50
55828;DHT22;41758;51.992;5.890;2024-03-08T04:50:42;6.80;62.50
55828;DHT22;41758;51.992;5.890;2024-03-08T04:53:08;6.70;62.50
55828;DHT22;41758;51.992;5.890;2024-03-08T04:55:34;6.70;62.50
55828;DHT22;41758;51.992;5.890;2024-03-08T04:58:00;6.70;62.50
55828;DHT22;41758;51.992;5.890;2024-03-08T05:00:26;6.70;62.50
55828;DHT22;41758;51.992;5.890;2024-03-08T05:02:51;6.70;62.60
55828;DHT22;41758;51.992;5.890;2024-03-08T05:05:19;6.70;62.60
55828;DHT22;41758;51.992;5.890;2024-03-08T05:07:44;6.70;62.60
55828;DHT22;41758;51.992;5.890;2024-03-08T05:10:11;6.70;62.50
55828;DHT22;41758;51.992;5.890;2024-03-08T05:12:37;6.70;62.50
55828;DHT22;41758;51.992;5.890;2024-03-08T05:15:05;6.70;62.50
55828;DHT22;41758;51.992;5.890;2024-03-08T05:17:32;6.70;62.50
55828;DHT22;41758;51.992;5.890;2024-03-08T05:19:58;6.70;62.50
55828;DHT22;41758;51.992;5.890;2024-03-08T05:22:24;6.60;62.50
55828;DHT22;41758;51.992;5.890;2024-03-08T05:24:49;6.60;62.60
55828;DHT22;41758;51.992;5.890;2024-03-08T05:27:15;6.60;62.50
55828;DHT22;41758;51.992;5.890;2024-03-08T05:29:41;6.60;62.50
55828;DHT22;41758;51.992;5.890;2024-03-08T05:32:07;6.60;62.50
55828;DHT22;41758;51.992;5.890;2024-03-08T05:34:33;6.60;62.50
55828;DHT22;41758;51.992;5.890;2024-03-08T05:36:58;6.60;62.50
55828;DHT22;41758;51.992;5.890;2024-03-08T05:39:25;6.60;62.50
55828;DHT22;41758;51.992;5.890;2024-03-08T05:41:51;6.60;62.60
55828;DHT22;41758;51.992;5.890;2024-03-08T05:44:17;6.60;62.60
55828;DHT22;41758;51.992;5.890;2024-03-08T05:46:42;6.60;62.60
55828;DHT22;41758;51.992;5.890;2024-03-08T05:49:08;6.60;62.60
55828;DHT22;41758;51.992;5.890;2024-03-08T05:51:37;6.60;62.60
55828;DHT22;41758;51.992;5.890;2024-03-08T05:54:11;6.60;62.60
55828;DHT22;41758;51.992;5.890;2024-03-08T05:56:38;6.60;62.60
55828;DHT22;41758;51.992;5.890;2024-03-08T05:59:06;6.60;62.60
55828;DHT22;41758;51.992;5.890;2024-03-08T06:01:31;6.60;62.60
55828;DHT22;41758;51.992;5.890;2024-03-08T06:03:57;6.50;62.50
55828;DHT22;41758;51.992;5.890;2024-03-08T06:06:24;6.60;62.50
55828;DHT22;41758;51.992;5.890;2024-03-08T06:08:50;6.60;62.60
55828;DHT22;41758;51.992;5.890;2024-03-08T06:11:17;6.50;62.60
55828;DHT22;41758;51.992;5.890;2024-03-08T06:13:44;6.60;62.60
55828;DHT22;41758;51.992;5.890;2024-03-08T06:16:09;6.60;62.60
55828;DHT22;41758;51.992;5.890;2024-03-08T06:18:36;6.50;62.60
55828;DHT22;41758;51.992;5.890;2024-03-08T06:21:08;6.60;62.70
55828;DHT22;41758;51.992;5.890;2024-03-08T06:23:41;6.60;62.60
55828;DHT22;41758;51.992;5.890;2024-03-08T06:26:07;6.50;62.60
55828;DHT22;41758;51.992;5.890;2024-03-08T06:28:34;6.50;62.70
55828;DHT22;41758;51.992;5.890;2024-03-08T06:31:00;6.50;62.70
55828;DHT22;41758;51.992;5.890;2024-03-08T06:33:26;6.60;62.70
55828;DHT22;41758;51.992;5.890;2024-03-08T06:35:53;6.60;62.70
55828;DHT22;41758;51.992;5.890;2024-03-08T06:38:20;6.60;62.70
55828;DHT22;41758;51.992;5.890;2024-03-08T06:40:46;6.60;62.70
55828;DHT22;41758;51.992;5.890;2024-03-08T06:43:14;6.60;62.70
55828;DHT22;41758;51.992;5.890;2024-03-08T06:45:50;6.60;62.70
55828;DHT22;41758;51.992;5.890;2024-03-08T06:48:19;6.70;62.70
55828;DHT22;41758;51.992;5.890;2024-03-08T06:50:46;6.70;62.80
55828;DHT22;41758;51.992;5.890;2024-03-08T06:53:12;6.70;62.80
55828;DHT22;41758;51.992;5.890;2024-03-08T06:55:39;6.70;62.80
55828;DHT22;41758;51.992;5.890;2024-03-08T06:58:05;6.80;62.80
55828;DHT22;41758;51.992;5.890;2024-03-08T07:00:32;6.80;62.80
55828;DHT22;41758;51.992;5.890;2024-03-08T07:02:58;6.80;62.80
55828;DHT22;41758;51.992;5.890;2024-03-08T07:05:30;6.80;62.90
55828;DHT22;41758;51.992;5.890;2024-03-08T07:07:58;6.90;62.90
55828;DHT22;41758;51.992;5.890;2024-03-08T07:10:24;6.90;62.90
55828;DHT22;41758;51.992;5.890;2024-03-08T07:12:53;7.00;62.90
55828;DHT22;41758;51.992;5.890;2024-03-08T07:15:19;7.00;62.90
55828;DHT22;41758;51.992;5.890;2024-03-08T07:17:45;7.10;62.90
55828;DHT22;41758;51.992;5.890;2024-03-08T07:20:12;7.10;62.80
55828;DHT22;41758;51.992;5.890;2024-03-08T07:22:39;7.20;62.80
55828;DHT22;41758;51.992;5.890;2024-03-08T07:25:08;7.20;62.80
55828;DHT22;41758;51.992;5.890;2024-03-08T07:27:53;7.30;62.70
55828;DHT22;41758;51.992;5.890;2024-03-08T07:30:24;7.30;62.70
55828;DHT22;41758;51.992;5.890;2024-03-08T07:33:08;7.30;62.70
55828;DHT22;41758;51.992;5.890;2024-03-08T07:35:37;7.30;62.70
55828;DHT22;41758;51.992;5.890;2024-03-08T07:38:07;7.40;62.60
55828;DHT22;41758;51.992;5.890;2024-03-08T07:40:37;7.40;62.60
55828;DHT22;41758;51.992;5.890;2024-03-08T07:43:10;7.50;62.60
55828;DHT22;41758;51.992;5.890;2024-03-08T07:45:39;7.60;62.60
55828;DHT22;41758;51.992;5.890;2024-03-08T07:48:05;7.60;62.60
55828;DHT22;41758;51.992;5.890;2024-03-08T07:50:39;7.60;62.60
55828;DHT22;41758;51.992;5.890;2024-03-08T07:53:08;7.60;62.60
55828;DHT22;41758;51.992;5.890;2024-03-08T07:55:34;7.70;62.60
55828;DHT22;41758;51.992;5.890;2024-03-08T07:58:01;7.80;62.60
55828;DHT22;41758;51.992;5.890;2024-03-08T08:00:27;7.80;62.50
55828;DHT22;41758;51.992;5.890;2024-03-08T08:02:55;7.90;62.50
55828;DHT22;41758;51.992;5.890;2024-03-08T08:05:21;7.90;62.40
55828;DHT22;41758;51.992;5.890;2024-03-08T08:07:47;7.90;62.20
55828;DHT22;41758;51.992;5.890;2024-03-08T08:10:13;8.00;62.10
55828;DHT22;41758;51.992;5.890;2024-03-08T08:12:48;8.00;62.20
55828;DHT22;41758;51.992;5.890;2024-03-08T08:15:14;8.00;62.00
55828;DHT22;41758;51.992;5.890;2024-03-08T08:17:46;8.10;61.90
55828;DHT22;41758;51.992;5.890;2024-03-08T08:20:13;8.10;61.90
55828;DHT22;41758;51.992;5.890;2024-03-08T08:22:39;8.20;62.00
55828;DHT22;41758;51.992;5.890;2024-03-08T08:25:06;8.20;62.00
55828;DHT22;41758;51.992;5.890;2024-03-08T08:27:32;8.30;61.90
55828;DHT22;41758;51.992;5.890;2024-03-08T08:29:58;8.30;61.90
55828;DHT22;41758;51.992;5.890;2024-03-08T08:32:24;8.40;61.80
55828;DHT22;41758;51.992;5.890;2024-03-08T08:34:50;8.40;61.90
55828;DHT22;41758;51.992;5.890;2024-03-08T08:37:16;8.50;61.70
55828;DHT22;41758;51.992;5.890;2024-03-08T08:39:42;8.50;61.70
55828;DHT22;41758;51.992;5.890;2024-03-08T08:42:07;8.60;61.70
55828;DHT22;41758;51.992;5.890;2024-03-08T08:44:36;8.60;61.80
55828;DHT22;41758;51.992;5.890;2024-03-08T08:47:04;8.70;61.80
55828;DHT22;41758;51.992;5.890;2024-03-08T08:49:30;8.80;61.80
55828;DHT22;41758;51.992;5.890;2024-03-08T08:51:56;8.90;61.80
55828;DHT22;41758;51.992;5.890;2024-03-08T08:54:24;9.00;61.80
55828;DHT22;41758;51.992;5.890;2024-03-08T08:56:51;9.10;61.70
55828;DHT22;41758;51.992;5.890;2024-03-08T08:59:17;9.10;61.70
55828;DHT22;41758;51.992;5.890;2024-03-08T09:01:48;9.20;61.70
55828;DHT22;41758;51.992;5.890;2024-03-08T09:04:13;9.30;61.80
55828;DHT22;41758;51.992;5.890;2024-03-08T09:06:39;9.30;61.80
55828;DHT22;41758;51.992;5.890;2024-03-08T09:09:08;9.40;61.80
55828;DHT22;41758;51.992;5.890;2024-03-08T09:11:39;9.50;61.80
55828;DHT22;41758;51.992;5.890;2024-03-08T09:14:07;9.60;61.60
55828;DHT22;41758;51.992;5.890;2024-03-08T09:16:33;9.70;61.60
55828;DHT22;41758;51.992;5.890;2024-03-08T09:18:59;9.70;61.70
55828;DHT22;41758;51.992;5.890;2024-03-08T09:21:25;9.80;61.70
55828;DHT22;41758;51.992;5.890;2024-03-08T09:23:52;9.90;61.60
55828;DHT22;41758;51.992;5.890;2024-03-08T09:26:19;9.90;61.60
55828;DHT22;41758;51.992;5.890;2024-03-08T09:28:45;10.10;61.60
55828;DHT22;41758;51.992;5.890;2024-03-08T09:31:11;10.10;61.60
55828;DHT22;41758;51.992;5.890;2024-03-08T09:33:37;10.20;61.60
55828;DHT22;41758;51.992;5.890;2024-03-08T09:36:06;10.30;61.60
55828;DHT22;41758;51.992;5.890;2024-03-08T09:38:33;10.40;61.60
55828;DHT22;41758;51.992;5.890;2024-03-08T09:41:00;10.40;61.60
55828;DHT22;41758;51.992;5.890;2024-03-08T09:43:28;10.50;61.40
55828;DHT22;41758;51.992;5.890;2024-03-08T09:45:54;10.70;61.40
55828;DHT22;41758;51.992;5.890;2024-03-08T09:48:22;10.80;61.40
55828;DHT22;41758;51.992;5.890;2024-03-08T09:50:48;10.80;61.40
55828;DHT22;41758;51.992;5.890;2024-03-08T09:53:15;11.00;61.40
55828;DHT22;41758;51.992;5.890;2024-03-08T09:55:41;11.00;61.30
55828;DHT22;41758;51.992;5.890;2024-03-08T09:58:13;11.10;61.20
55828;DHT22;41758;51.992;5.890;2024-03-08T10:00:43;11.20;61.00
55828;DHT22;41758;51.992;5.890;2024-03-08T10:03:08;11.30;61.00
55828;DHT22;41758;51.992;5.890;2024-03-08T10:05:34;11.30;61.00
55828;DHT22;41758;51.992;5.890;2024-03-08T10:08:00;11.40;61.00
55828;DHT22;41758;51.992;5.890;2024-03-08T10:10:26;11.50;61.00
55828;DHT22;41758;51.992;5.890;2024-03-08T10:12:52;11.60;60.80
55828;DHT22;41758;51.992;5.890;2024-03-08T10:15:18;11.80;60.80
55828;DHT22;41758;51.992;5.890;2024-03-08T10:17:45;11.80;60.60
55828;DHT22;41758;51.992;5.890;2024-03-08T10:20:18;11.90;60.60
55828;DHT22;41758;51.992;5.890;2024-03-08T10:22:44;12.00;60.60
55828;DHT22;41758;51.992;5.890;2024-03-08T10:25:11;12.10;60.40
55828;DHT22;41758;51.992;5.890;2024-03-08T10:27:39;12.20;60.20
55828;DHT22;41758;51.992;5.890;2024-03-08T10:30:16;12.30;60.20
55828;DHT22;41758;51.992;5.890;2024-03-08T10:32:45;12.30;60.20
55828;DHT22;41758;51.992;5.890;2024-03-08T10:35:12;12.50;60.20
55828;DHT22;41758;51.992;5.890;2024-03-08T10:37:45;12.60;60.20
55828;DHT22;41758;51.992;5.890;2024-03-08T10:40:19;12.70;60.20
55828;DHT22;41758;51.992;5.890;2024-03-08T10:42:58;12.90;59.90
55828;DHT22;41758;51.992;5.890;2024-03-08T10:45:31;13.00;59.90
55828;DHT22;41758;51.992;5.890;2024-03-08T10:48:28;13.10;59.80
55828;DHT22;41758;51.992;5.890;2024-03-08T10:50:57;13.30;60.00
55828;DHT22;41758;51.992;5.890;2024-03-08T10:53:23;13.50;60.20
55828;DHT22;41758;51.992;5.890;2024-03-08T10:55:53;13.70;59.80
55828;DHT22;41758;51.992;5.890;2024-03-08T10:58:23;14.00;59.50
55828;DHT22;41758;51.992;5.890;2024-03-08T11:00:53;14.30;59.40
55828;DHT22;41758;51.992;5.890;2024-03-08T11:06:08;14.80;59.20
55828;DHT22;41758;51.992;5.890;2024-03-08T11:08:37;14.90;58.80
55828;DHT22;41758;51.992;5.890;2024-03-08T11:11:04;15.10;58.90
55828;DHT22;41758;51.992;5.890;2024-03-08T11:13:34;15.30;58.50
55828;DHT22;41758;51.992;5.890;2024-03-08T11:16:10;15.50;58.00
55828;DHT22;41758;51.992;5.890;2024-03-08T11:18:37;15.70;57.50
55828;DHT22;41758;51.992;5.890;2024-03-08T11:21:08;15.90;57.70
55828;DHT22;41758;51.992;5.890;2024-03-08T11:23:38;16.20;57.70
55828;DHT22;41758;51.992;5.890;2024-03-08T11:26:18;16.50;57.70
55828;DHT22;41758;51.992;5.890;2024-03-08T11:28:44;16.80;56.60
55828;DHT22;41758;51.992;5.890;2024-03-08T11:33:40;17.10;56.00
55828;DHT22;41758;51.992;5.890;2024-03-08T11:36:27;17.30;55.70
55828;DHT22;41758;51.992;5.890;2024-03-08T11:38:53;17.50;55.10
55828;DHT22;41758;51.992;5.890;2024-03-08T11:41:24;17.60;55.20
55828;DHT22;41758;51.992;5.890;2024-03-08T11:44:04;17.80;55.50
55828;DHT22;41758;51.992;5.890;2024-03-08T11:46:30;18.00;54.50
55828;DHT22;41758;51.992;5.890;2024-03-08T11:48:56;18.10;54.50
55828;DHT22;41758;51.992;5.890;2024-03-08T11:51:22;18.30;53.50
55828;DHT22;41758;51.992;5.890;2024-03-08T11:53:49;18.40;52.70
55828;DHT22;41758;51.992;5.890;2024-03-08T11:56:15;18.50;52.40
55828;DHT22;41758;51.992;5.890;2024-03-08T11:58:41;18.60;51.80
55828;DHT22;41758;51.992;5.890;2024-03-08T12:01:08;18.80;51.30
55828;DHT22;41758;51.992;5.890;2024-03-08T12:03:43;18.90;51.30
55828;DHT22;41758;51.992;5.890;2024-03-08T12:06:09;19.10;50.70
55828;DHT22;41758;51.992;5.890;2024-03-08T12:08:36;19.30;49.60
55828;DHT22;41758;51.992;5.890;2024-03-08T12:11:04;19.50;49.20
55828;DHT22;41758;51.992;5.890;2024-03-08T12:13:32;19.70;48.00
55828;DHT22;41758;51.992;5.890;2024-03-08T12:15:58;19.90;47.10
55828;DHT22;41758;51.992;5.890;2024-03-08T12:18:27;20.10;46.70
55828;DHT22;41758;51.992;5.890;2024-03-08T12:21:08;20.30;46.10
55828;DHT22;41758;51.992;5.890;2024-03-08T12:23:36;20.60;45.80
55828;DHT22;41758;51.992;5.890;2024-03-08T12:26:16;20.80;45.20
55828;DHT22;41758;51.992;5.890;2024-03-08T12:28:44;21.00;44.40
55828;DHT22;41758;51.992;5.890;2024-03-08T12:31:12;21.20;43.80
55828;DHT22;41758;51.992;5.890;2024-03-08T12:33:51;21.40;43.40
55828;DHT22;41758;51.992;5.890;2024-03-08T12:36:18;21.70;42.80
55828;DHT22;41758;51.992;5.890;2024-03-08T12:38:44;21.90;41.80
55828;DHT22;41758;51.992;5.890;2024-03-08T12:41:17;22.10;41.00
55828;DHT22;41758;51.992;5.890;2024-03-08T12:43:43;22.10;40.20
55828;DHT22;41758;51.992;5.890;2024-03-08T12:46:17;22.10;40.90
55828;DHT22;41758;51.992;5.890;2024-03-08T12:48:46;22.20;40.50
55828;DHT22;41758;51.992;5.890;2024-03-08T12:51:15;22.40;39.70
55828;DHT22;41758;51.992;5.890;2024-03-08T12:53:42;22.50;39.00
55828;DHT22;41758;51.992;5.890;2024-03-08T12:56:12;22.60;38.80
55828;DHT22;41758;51.992;5.890;2024-03-08T12:58:38;22.80;38.40
55828;DHT22;41758;51.992;5.890;2024-03-08T13:01:04;23.00;38.50
55828;DHT22;41758;51.992;5.890;2024-03-08T13:03:35;23.30;38.20
55828;DHT22;41758;51.992;5.890;2024-03-08T13:06:05;23.60;37.90
55828;DHT22;41758;51.992;5.890;2024-03-08T13:08:38;23.90;37.70
55828;DHT22;41758;51.992;5.890;2024-03-08T13:11:05;24.30;36.20
55828;DHT22;41758;51.992;5.890;2024-03-08T13:13:32;24.40;35.40
55828;DHT22;41758;51.992;5.890;2024-03-08T13:16:01;24.60;35.10
55828;DHT22;41758;51.992;5.890;2024-03-08T13:18:27;24.80;35.20
55828;DHT22;41758;51.992;5.890;2024-03-08T13:20:54;24.90;34.40
55828;DHT22;41758;51.992;5.890;2024-03-08T13:23:20;24.90;34.20
55828;DHT22;41758;51.992;5.890;2024-03-08T13:25:46;24.80;34.20
55828;DHT22;41758;51.992;5.890;2024-03-08T13:28:14;24.60;34.20
55828;DHT22;41758;51.992;5.890;2024-03-08T13:30:40;24.40;33.80
55828;DHT22;41758;51.992;5.890;2024-03-08T13:33:07;24.10;33.40
55828;DHT22;41758;51.992;5.890;2024-03-08T13:35:32;23.80;33.40
55828;DHT22;41758;51.992;5.890;2024-03-08T13:38:00;23.30;33.10
55828;DHT22;41758;51.992;5.890;2024-03-08T13:40:28;22.80;33.30
55828;DHT22;41758;51.992;5.890;2024-03-08T13:42:54;22.30;33.80
55828;DHT22;41758;51.992;5.890;2024-03-08T13:45:20;21.90;34.50
55828;DHT22;41758;51.992;5.890;2024-03-08T13:47:53;21.50;34.90
55828;DHT22;41758;51.992;5.890;2024-03-08T13:50:19;21.20;34.50
55828;DHT22;41758;51.992;5.890;2024-03-08T13:52:50;20.90;34.90
55828;DHT22;41758;51.992;5.890;2024-03-08T13:55:22;20.80;35.20
55828;DHT22;41758;51.992;5.890;2024-03-08T13:57:48;20.60;35.30
55828;DHT22;41758;51.992;5.890;2024-03-08T14:00:15;20.30;35.50
55828;DHT22;41758;51.992;5.890;2024-03-08T14:02:41;20.00;35.60
55828;DHT22;41758;51.992;5.890;2024-03-08T14:05:07;19.80;35.90
55828;DHT22;41758;51.992;5.890;2024-03-08T14:07:37;19.60;36.20
55828;DHT22;41758;51.992;5.890;2024-03-08T14:10:03;19.30;36.40
55828;DHT22;41758;51.992;5.890;2024-03-08T14:12:29;19.10;36.60
55828;DHT22;41758;51.992;5.890;2024-03-08T14:14:56;18.90;36.70
55828;DHT22;41758;51.992;5.890;2024-03-08T14:17:25;18.70;36.60
55828;DHT22;41758;51.992;5.890;2024-03-08T14:19:53;18.40;36.40
55828;DHT22;41758;51.992;5.890;2024-03-08T14:22:18;18.20;36.80
55828;DHT22;41758;51.992;5.890;2024-03-08T14:24:45;18.10;37.30
55828;DHT22;41758;51.992;5.890;2024-03-08T14:27:11;17.90;37.70
55828;DHT22;41758;51.992;5.890;2024-03-08T14:29:38;17.80;38.00
55828;DHT22;41758;51.992;5.890;2024-03-08T14:32:07;17.80;38.00
55828;DHT22;41758;51.992;5.890;2024-03-08T14:34:34;17.60;38.10
55828;DHT22;41758;51.992;5.890;2024-03-08T14:37:00;17.50;38.20
55828;DHT22;41758;51.992;5.890;2024-03-08T14:39:26;17.40;38.30
55828;DHT22;41758;51.992;5.890;2024-03-08T14:41:55;17.30;38.60
55828;DHT22;41758;51.992;5.890;2024-03-08T14:44:21;17.30;38.80
55828;DHT22;41758;51.992;5.890;2024-03-08T14:46:58;17.30;38.90
55828;DHT22;41758;51.992;5.890;2024-03-08T14:49:24;17.20;39.20
55828;DHT22;41758;51.992;5.890;2024-03-08T14:51:51;17.10;39.40
55828;DHT22;41758;51.992;5.890;2024-03-08T14:54:17;17.10;39.30
55828;DHT22;41758;51.992;5.890;2024-03-08T14:56:48;17.00;39.50
55828;DHT22;41758;51.992;5.890;2024-03-08T14:59:16;16.90;39.30
55828;DHT22;41758;51.992;5.890;2024-03-08T15:01:42;16.90;39.50
55828;DHT22;41758;51.992;5.890;2024-03-08T15:04:09;16.80;39.80
55828;DHT22;41758;51.992;5.890;2024-03-08T15:06:38;16.80;39.90
55828;DHT22;41758;51.992;5.890;2024-03-08T15:09:05;16.80;39.80
55828;DHT22;41758;51.992;5.890;2024-03-08T15:11:38;16.70;40.10
55828;DHT22;41758;51.992;5.890;2024-03-08T15:14:05;16.70;40.00
55828;DHT22;41758;51.992;5.890;2024-03-08T15:16:36;16.70;39.80
55828;DHT22;41758;51.992;5.890;2024-03-08T15:19:02;16.60;40.10
55828;DHT22;41758;51.992;5.890;2024-03-08T15:21:30;16.60;40.20
55828;DHT22;41758;51.992;5.890;2024-03-08T15:23:56;16.60;40.00
55828;DHT22;41758;51.992;5.890;2024-03-08T15:26:21;16.60;40.10
55828;DHT22;41758;51.992;5.890;2024-03-08T15:28:47;16.60;40.30
55828;DHT22;41758;51.992;5.890;2024-03-08T15:31:17;16.50;40.30
55828;DHT22;41758;51.992;5.890;2024-03-08T15:33:44;16.50;40.10
55828;DHT22;41758;51.992;5.890;2024-03-08T15:36:11;16.50;40.50
55828;DHT22;41758;51.992;5.890;2024-03-08T15:38:40;16.50;40.40
55828;DHT22;41758;51.992;5.890;2024-03-08T15:41:06;16.40;40.50
55828;DHT22;41758;51.992;5.890;2024-03-08T15:43:41;16.50;40.60
55828;DHT22;41758;51.992;5.890;2024-03-08T15:46:08;16.40;40.50
55828;DHT22;41758;51.992;5.890;2024-03-08T15:48:35;16.50;40.60